Time;durP1;ratioP1;P1;durP2;ratioP2;P2;SDS_P1;SDS_P2;PMS_P1;PMS_P2;Temp;Humidity;BMP_temperature;BMP_pressure;BME280_temperature;BME280_humidity;BME280_pressure;Samples;Min_cycle;Max_cycle;Signal;HPM_P1;HPM_P2
2022/11/16 00:01:04;;;;;;;5.47;1.80;;;;;;;;;;5054062;28;20140;-78
2022/11/16 00:03:31;;;;;;;2.63;1.88;;;;;;;;;;5054075;28;20020;-78
2022/11/16 00:05:57;;;;;;;2.47;1.77;;;;;;;;;;5070845;28;20025;-78
2022/11/16 00:08:23;;;;;;;2.50;1.90;;;;;;;;;;5073672;28;20028;-78
2022/11/16 00:10:48;;;;;;;3.92;1.80;;;;;;;;;;5057808;28;20036;-78
2022/11/16 00:13:14;;;;;;;3.50;1.90;;;;;;;;;;5075973;28;20060;-78
2022/11/16 00:15:39;;;;;;;2.17;1.70;;;;;;;;;;5075920;28;20028;-77
2022/11/16 00:18:04;;;;;;;5.50;1.95;;;;;;;;;;5040976;28;20024;-78
2022/11/16 00:20:30;;;;;;;2.08;1.80;;;;;;;;;;5057609;28;20424;-78
2022/11/16 00:22:55;;;;;;;2.78;1.90;;;;;;;;;;5076057;28;20474;-78
2022/11/16 00:25:20;;;;;;;2.75;1.90;;;;;;;;;;5075707;28;20032;-78
2022/11/16 00:27:46;;;;;;;2.33;1.90;;;;;;;;;;5075456;28;20060;-78
2022/11/16 00:30:11;;;;;;;4.80;1.67;;;;;;;;;;5074527;28;20093;-78
2022/11/16 00:32:37;;;;;;;2.80;1.70;;;;;;;;;;5074199;28;20039;-79
2022/11/16 00:35:02;;;;;;;2.33;2.05;;;;;;;;;;5075410;28;20029;-79
2022/11/16 00:37:28;;;;;;;2.28;1.83;;;;;;;;;;5057367;28;20032;-77
2022/11/16 00:39:53;;;;;;;2.75;2.05;;;;;;;;;;5057085;28;20115;-77
2022/11/16 00:42:18;;;;;;;2.58;1.77;;;;;;;;;;5073829;28;20039;-78
2022/11/16 00:44:44;;;;;;;4.80;2.00;;;;;;;;;;5057392;28;20548;-77
2022/11/16 00:47:09;;;;;;;5.32;1.90;;;;;;;;;;5041318;28;20172;-77
2022/11/16 00:49:34;;;;;;;2.78;2.35;;;;;;;;;;5075396;28;20234;-77
2022/11/16 00:52:00;;;;;;;4.00;1.70;;;;;;;;;;5073915;28;20024;-78
2022/11/16 00:54:25;;;;;;;1.85;1.65;;;;;;;;;;5075124;28;20036;-77
2022/11/16 00:56:50;;;;;;;2.95;1.88;;;;;;;;;;5073722;28;20043;-78
2022/11/16 00:59:16;;;;;;;2.20;1.88;;;;;;;;;;5073652;28;20494;-77
2022/11/16 01:01:41;;;;;;;3.88;2.00;;;;;;;;;;5073487;28;20395;-78
2022/11/16 01:04:06;;;;;;;7.20;1.77;;;;;;;;;;5056876;28;20036;-77
2022/11/16 01:06:32;;;;;;;3.55;1.90;;;;;;;;;;5056810;28;20432;-77
2022/11/16 01:08:57;;;;;;;2.75;2.00;;;;;;;;;;5073487;28;20021;-78
2022/11/16 01:14:08;;;;;;;2.20;1.90;;;;;;;;;;5073697;28;20043;-77
2022/11/16 01:16:33;;;;;;;5.22;1.80;;;;;;;;;;5074859;28;20075;-77
2022/11/16 01:18:59;;;;;;;2.53;2.20;;;;;;;;;;5056285;28;20024;-78
2022/11/16 01:21:24;;;;;;;2.60;1.58;;;;;;;;;;5056400;28;20033;-78
2022/11/16 01:23:50;;;;;;;2.95;2.05;;;;;;;;;;5056824;28;20077;-77
2022/11/16 01:26:16;;;;;;;2.35;1.88;;;;;;;;;;5073029;28;20028;-77
2022/11/16 01:28:41;;;;;;;1.70;1.60;;;;;;;;;;5073333;28;20078;-77
2022/11/16 01:31:08;;;;;;;3.20;1.67;;;;;;;;;;5073196;28;20123;-77
2022/11/16 01:33:34;;;;;;;2.28;1.73;;;;;;;;;;5056625;28;20020;-78
2022/11/16 01:35:59;;;;;;;2.88;1.55;;;;;;;;;;5074241;28;20052;-77
2022/11/16 01:38:25;;;;;;;2.35;1.45;;;;;;;;;;5072883;28;20115;-77
2022/11/16 01:40:50;;;;;;;2.03;1.55;;;;;;;;;;5056044;28;20041;-78
2022/11/16 01:43:17;;;;;;;3.25;1.80;;;;;;;;;;5056396;28;20043;-77
2022/11/16 01:45:43;;;;;;;1.60;1.50;;;;;;;;;;5056054;28;20111;-77
2022/11/16 01:48:15;;;;;;;2.50;1.80;;;;;;;;;;5074443;28;20021;-77
2022/11/16 01:50:41;;;;;;;2.08;1.73;;;;;;;;;;5072580;28;20027;-77
2022/11/16 01:53:07;;;;;;;2.42;1.80;;;;;;;;;;5074108;28;20032;-77
2022/11/16 01:55:34;;;;;;;3.17;2.00;;;;;;;;;;5055849;28;20028;-77
2022/11/16 01:57:59;;;;;;;2.72;1.90;;;;;;;;;;5073775;28;20035;-78
2022/11/16 02:00:25;;;;;;;1.92;1.55;;;;;;;;;;5072792;28;20029;-77
2022/11/16 02:02:51;;;;;;;3.45;1.80;;;;;;;;;;5072487;28;20422;-77
2022/11/16 02:05:19;;;;;;;1.90;1.80;;;;;;;;;;5039181;28;20536;-77
2022/11/16 02:11:08;;;;;;;2.58;2.15;;;;;;;;;;5072786;28;20157;-77
2022/11/16 02:13:45;;;;;;;1.73;1.63;;;;;;;;;;5073803;28;20431;-77
2022/11/16 02:16:36;;;;;;;4.22;1.60;;;;;;;;;;5073887;28;20048;-77
2022/11/16 02:19:20;;;;;;;13.93;1.90;;;;;;;;;;5062631;28;20049;-77
2022/11/16 02:21:55;;;;;;;2.88;1.77;;;;;;;;;;5072343;28;20038;-77
2022/11/16 02:24:24;;;;;;;2.22;1.73;;;;;;;;;;5055738;28;20360;-77
2022/11/16 02:27:11;;;;;;;1.63;1.52;;;;;;;;;;5073006;28;20052;-77
2022/11/16 02:29:53;;;;;;;2.40;1.70;;;;;;;;;;5071709;28;20176;-78
2022/11/16 02:32:41;;;;;;;3.40;1.70;;;;;;;;;;5055268;28;20093;-77
2022/11/16 02:35:13;;;;;;;1.85;1.60;;;;;;;;;;5055578;28;20422;-79
2022/11/16 02:37:43;;;;;;;1.73;1.63;;;;;;;;;;5055123;28;20390;-78
2022/11/16 02:40:11;;;;;;;2.28;1.67;;;;;;;;;;5071971;28;20036;-78
2022/11/16 02:42:43;;;;;;;4.72;1.70;;;;;;;;;;5071816;28;20123;-79
2022/11/16 02:45:10;;;;;;;1.85;1.70;;;;;;;;;;5071942;28;20058;-79
2022/11/16 02:47:37;;;;;;;6.22;1.77;;;;;;;;;;5071920;28;20039;-79
2022/11/16 02:50:06;;;;;;;3.25;1.80;;;;;;;;;;5071530;28;20031;-78
2022/11/16 02:52:32;;;;;;;2.80;1.60;;;;;;;;;;5071515;28;20493;-78
2022/11/16 02:54:57;;;;;;;3.00;1.77;;;;;;;;;;5072747;28;20071;-78
2022/11/16 02:57:36;;;;;;;2.03;1.83;;;;;;;;;;5054763;28;20170;-77
2022/11/16 03:00:05;;;;;;;1.70;1.60;;;;;;;;;;5071373;28;20099;-77
2022/11/16 03:02:36;;;;;;;1.60;1.50;;;;;;;;;;5071464;28;20020;-77
2022/11/16 03:05:12;;;;;;;3.33;1.55;;;;;;;;;;5073225;28;20043;-78
2022/11/16 03:07:44;;;;;;;1.80;1.20;;;;;;;;;;5071593;28;20056;-78
2022/11/16 03:10:10;;;;;;;1.45;1.35;;;;;;;;;;5054589;28;20032;-78
2022/11/16 03:12:37;;;;;;;1.40;1.30;;;;;;;;;;5054665;28;20048;-78
2022/11/16 03:15:06;;;;;;;2.60;1.48;;;;;;;;;;5054433;28;20043;-79
2022/11/16 03:17:42;;;;;;;1.92;1.48;;;;;;;;;;5071398;28;20082;-78
2022/11/16 03:20:19;;;;;;;1.60;1.50;;;;;;;;;;5071196;28;20024;-78
2022/11/16 03:22:46;;;;;;;1.55;1.45;;;;;;;;;;5071502;28;20021;-78
2022/11/16 03:25:17;;;;;;;1.98;1.40;;;;;;;;;;5071203;28;20486;-78
2022/11/16 03:28:04;;;;;;;1.40;1.30;;;;;;;;;;5071030;28;20150;-78
2022/11/16 03:30:34;;;;;;;1.60;1.50;;;;;;;;;;5071034;28;20051;-78
2022/11/16 03:33:04;;;;;;;2.10;1.63;;;;;;;;;;5054486;28;20029;-78
2022/11/16 03:35:38;;;;;;;1.60;1.50;;;;;;;;;;5071101;28;20020;-78
2022/11/16 03:38:04;;;;;;;1.80;1.70;;;;;;;;;;5054287;28;20024;-79
2022/11/16 03:40:33;;;;;;;1.65;1.50;;;;;;;;;;5071514;28;20516;-79
2022/11/16 03:43:00;;;;;;;2.13;1.50;;;;;;;;;;5058398;28;20036;-79
2022/11/16 03:45:25;;;;;;;1.42;1.33;;;;;;;;;;5075578;28;20036;-79
2022/11/16 03:47:51;;;;;;;1.58;1.48;;;;;;;;;;5076561;28;20040;-79
2022/11/16 03:50:16;;;;;;;1.92;1.58;;;;;;;;;;5076216;28;20097;-78
2022/11/16 03:52:42;;;;;;;2.17;1.55;;;;;;;;;;5076363;28;20132;-78
2022/11/16 03:55:07;;;;;;;2.83;1.50;;;;;;;;;;5058135;28;20393;-78
2022/11/16 03:57:33;;;;;;;2.58;1.60;;;;;;;;;;5075368;28;20451;-78
2022/11/16 03:59:58;;;;;;;2.35;1.70;;;;;;;;;;5075012;28;20427;-78
2022/11/16 04:02:23;;;;;;;2.05;1.70;;;;;;;;;;5058267;28;20098;-78
2022/11/16 04:24:13;;;;;;;1.60;1.50;;;;;;;;;;5074526;28;20090;-78
2022/11/16 04:29:25;;;;;;;1.50;1.40;;;;;;;;;;5075518;28;20032;-78
2022/11/16 04:40:03;;;;;;;2.60;1.42;;;;;;;;;;5075495;28;20501;-79
2022/11/16 04:42:28;;;;;;;3.38;1.77;;;;;;;;;;5073997;28;20052;-78
2022/11/16 04:47:37;;;;;;;1.63;1.52;;;;;;;;;;5075199;28;20406;-79
2022/11/16 04:50:03;;;;;;;3.42;1.52;;;;;;;;;;5057239;28;20080;-78
2022/11/16 04:52:29;;;;;;;3.70;1.65;;;;;;;;;;5056591;28;20398;-79
2022/11/16 04:54:54;;;;;;;1.70;1.60;;;;;;;;;;5074195;28;20036;-79
2022/11/16 04:57:20;;;;;;;6.80;1.60;;;;;;;;;;5074030;28;20028;-79
2022/11/16 04:59:45;;;;;;;2.22;1.35;;;;;;;;;;5075183;28;20055;-79
2022/11/16 05:02:10;;;;;;;1.85;1.50;;;;;;;;;;5056774;28;20032;-78
2022/11/16 05:04:37;;;;;;;2.33;1.30;;;;;;;;;;5073404;28;20037;-78
2022/11/16 05:07:09;;;;;;;4.90;1.85;;;;;;;;;;5056741;28;20032;-78
2022/11/16 05:09:38;;;;;;;2.60;1.50;;;;;;;;;;5073677;28;20358;-78
2022/11/16 05:12:04;;;;;;;2.90;1.50;;;;;;;;;;5040744;28;20390;-78
2022/11/16 05:14:29;;;;;;;2.03;1.35;;;;;;;;;;5073192;28;20037;-79
2022/11/16 05:16:55;;;;;;;1.90;1.50;;;;;;;;;;5074954;28;20035;-78
2022/11/16 05:22:04;;;;;;;1.52;1.38;;;;;;;;;;5073520;28;20039;-78
2022/11/16 05:24:32;;;;;;;4.40;1.75;;;;;;;;;;5074703;28;20446;-78
2022/11/16 05:27:02;;;;;;;1.30;1.20;;;;;;;;;;5074344;28;20096;-79
2022/11/16 05:29:27;;;;;;;3.63;1.48;;;;;;;;;;5073199;28;20078;-78
2022/11/16 05:31:53;;;;;;;2.72;1.35;;;;;;;;;;5073136;28;20032;-78
2022/11/16 05:34:18;;;;;;;1.42;1.30;;;;;;;;;;5072849;28;20028;-79
2022/11/16 05:36:43;;;;;;;14.80;3.55;;;;;;;;;;5056061;28;20391;-78
2022/11/16 05:39:10;;;;;;;19.48;4.68;;;;;;;;;;5055258;28;20077;-79
2022/11/16 05:41:35;;;;;;;11.25;3.00;;;;;;;;;;5055452;28;20028;-77
2022/11/16 05:44:01;;;;;;;16.40;5.05;;;;;;;;;;5055748;28;20040;-79
2022/11/16 05:46:26;;;;;;;15.25;5.13;;;;;;;;;;5074103;28;20367;-79
2022/11/16 05:48:51;;;;;;;20.38;4.65;;;;;;;;;;5072214;28;20023;-79
2022/11/16 05:51:17;;;;;;;21.55;5.63;;;;;;;;;;5073322;28;20035;-79
2022/11/16 05:53:43;;;;;;;16.25;4.78;;;;;;;;;;5073661;28;20071;-78
2022/11/16 05:56:09;;;;;;;13.77;4.53;;;;;;;;;;5072755;28;20029;-80
2022/11/16 05:58:35;;;;;;;20.83;4.85;;;;;;;;;;5072964;28;20074;-79
2022/11/16 06:01:00;;;;;;;18.92;4.75;;;;;;;;;;5074336;28;20471;-79
2022/11/16 06:03:30;;;;;;;52.30;5.75;;;;;;;;;;5057315;28;20075;-80
2022/11/16 06:05:56;;;;;;;17.67;4.55;;;;;;;;;;5073166;28;20322;-80
2022/11/16 06:08:22;;;;;;;32.10;6.22;;;;;;;;;;5055830;28;20051;-79
2022/11/16 06:10:47;;;;;;;33.60;7.45;;;;;;;;;;5072678;28;20024;-80
2022/11/16 06:13:12;;;;;;;43.85;9.82;;;;;;;;;;5075002;28;20036;-80
2022/11/16 06:15:39;;;;;;;34.55;7.07;;;;;;;;;;5059719;28;20051;-80
2022/11/16 06:18:05;;;;;;;31.65;7.25;;;;;;;;;;5075504;28;20024;-80
2022/11/16 06:20:31;;;;;;;35.97;8.00;;;;;;;;;;5078251;28;20028;-80
2022/11/16 06:22:56;;;;;;;30.00;7.50;;;;;;;;;;5076674;28;20039;-80
2022/11/16 06:25:22;;;;;;;45.08;8.00;;;;;;;;;;5075946;28;20078;-80
2022/11/16 06:27:47;;;;;;;30.17;7.70;;;;;;;;;;5079165;28;20045;-80
2022/11/16 06:30:12;;;;;;;28.52;6.22;;;;;;;;;;5056767;28;20460;-81
2022/11/16 06:32:38;;;;;;;24.80;6.10;;;;;;;;;;5055232;28;20087;-80
2022/11/16 06:35:05;;;;;;;19.00;5.50;;;;;;;;;;5073565;28;20032;-80
2022/11/16 06:37:30;;;;;;;18.40;5.18;;;;;;;;;;5075615;28;20411;-79
2022/11/16 06:39:55;;;;;;;18.17;5.03;;;;;;;;;;5074593;28;20036;-80
2022/11/16 06:42:21;;;;;;;25.15;5.55;;;;;;;;;;5056663;28;20028;-80
2022/11/16 06:44:46;;;;;;;16.50;4.97;;;;;;;;;;5076274;28;20214;-79
2022/11/16 06:47:11;;;;;;;18.98;4.70;;;;;;;;;;5041467;28;20062;-78
2022/11/16 06:49:37;;;;;;;23.15;4.57;;;;;;;;;;5075551;28;20025;-78
2022/11/16 06:52:02;;;;;;;17.55;4.15;;;;;;;;;;5078470;28;20024;-78
2022/11/16 06:54:28;;;;;;;13.35;3.78;;;;;;;;;;5077722;28;20036;-79
2022/11/16 06:56:53;;;;;;;10.85;4.53;;;;;;;;;;5077057;28;20025;-79
2022/11/16 06:59:18;;;;;;;11.45;3.75;;;;;;;;;;5077722;28;20363;-79
2022/11/16 07:01:44;;;;;;;10.65;3.58;;;;;;;;;;5080183;28;20134;-79
2022/11/16 07:04:10;;;;;;;11.55;4.22;;;;;;;;;;5076448;28;20447;-79
2022/11/16 07:06:37;;;;;;;17.75;4.00;;;;;;;;;;5061913;28;20043;-79
2022/11/16 07:09:06;;;;;;;13.18;3.80;;;;;;;;;;5080967;28;20016;-79
2022/11/16 07:11:31;;;;;;;11.13;3.63;;;;;;;;;;5061286;28;20032;-80
2022/11/16 07:13:57;;;;;;;8.13;3.38;;;;;;;;;;5078591;28;20028;-79
2022/11/16 07:16:22;;;;;;;11.23;3.17;;;;;;;;;;5080217;28;20081;-79
2022/11/16 07:18:47;;;;;;;9.13;3.30;;;;;;;;;;5078319;28;20108;-79
2022/11/16 07:21:15;;;;;;;9.10;3.55;;;;;;;;;;5077407;28;20448;-79
2022/11/16 07:23:40;;;;;;;9.20;3.33;;;;;;;;;;5076692;28;20074;-80
2022/11/16 07:26:07;;;;;;;8.35;2.97;;;;;;;;;;5059305;28;20033;-79
2022/11/16 07:28:32;;;;;;;11.27;3.35;;;;;;;;;;5077146;28;20044;-79
2022/11/16 07:31:02;;;;;;;9.02;2.88;;;;;;;;;;5060065;28;20035;-79
2022/11/16 07:33:28;;;;;;;10.10;2.78;;;;;;;;;;5060376;28;20055;-79
2022/11/16 07:35:53;;;;;;;6.82;2.75;;;;;;;;;;5076456;28;20364;-79
2022/11/16 07:38:18;;;;;;;8.52;2.80;;;;;;;;;;5042511;28;20036;-79
2022/11/16 07:40:44;;;;;;;7.53;2.83;;;;;;;;;;5076069;28;20447;-78
2022/11/16 07:43:11;;;;;;;10.95;3.65;;;;;;;;;;5058509;28;20420;-81
2022/11/16 07:45:37;;;;;;;6.60;3.15;;;;;;;;;;5074837;28;20086;-80
2022/11/16 07:48:02;;;;;;;5.35;2.35;;;;;;;;;;5075178;28;20036;-80
2022/11/16 07:50:27;;;;;;;7.65;2.40;;;;;;;;;;5058366;28;20148;-79
2022/11/16 07:52:56;;;;;;;9.20;2.67;;;;;;;;;;5058899;28;20172;-79
2022/11/16 07:55:23;;;;;;;19.52;4.05;;;;;;;;;;5076965;28;20115;-79
2022/11/16 07:57:49;;;;;;;20.77;4.95;;;;;;;;;;5073652;28;20360;-81
2022/11/16 08:00:15;;;;;;;23.13;5.22;;;;;;;;;;5077798;28;20029;-79
2022/11/16 08:02:41;;;;;;;24.85;6.40;;;;;;;;;;5088720;28;20051;-80
2022/11/16 08:05:07;;;;;;;23.20;6.03;;;;;;;;;;5090705;28;20032;-79
2022/11/16 08:07:34;;;;;;;21.60;5.38;;;;;;;;;;5089201;28;20029;-80
2022/11/16 08:10:00;;;;;;;19.27;5.00;;;;;;;;;;5076333;28;20024;-79
2022/11/16 08:12:25;;;;;;;15.88;5.22;;;;;;;;;;5060018;28;20111;-80
2022/11/16 08:14:51;;;;;;;14.82;4.70;;;;;;;;;;5091059;28;20027;-80
2022/11/16 08:17:17;;;;;;;16.00;5.07;;;;;;;;;;5091234;28;20037;-79
2022/11/16 08:19:45;;;;;;;13.80;4.00;;;;;;;;;;5094163;28;20040;-80
2022/11/16 08:22:14;;;;;;;14.25;4.63;;;;;;;;;;5079381;28;20039;-77
2022/11/16 08:24:40;;;;;;;16.90;4.95;;;;;;;;;;5120416;23;20058;-78
2022/11/16 08:27:05;;;;;;;14.93;3.97;;;;;;;;;;5016662;28;20087;-78
2022/11/16 08:29:31;;;;;;;13.73;3.83;;;;;;;;;;5036208;28;20029;-77
2022/11/16 08:31:57;;;;;;;7.15;3.30;;;;;;;;;;5036448;28;20072;-77
2022/11/16 08:34:23;;;;;;;8.80;3.28;;;;;;;;;;5033684;28;20548;-80
2022/11/16 08:36:48;;;;;;;13.10;4.03;;;;;;;;;;5034809;28;20025;-80
2022/11/16 08:39:14;;;;;;;9.95;3.45;;;;;;;;;;5038741;28;20041;-79
2022/11/16 08:41:41;;;;;;;6.43;3.08;;;;;;;;;;5032708;28;20034;-80
2022/11/16 08:44:06;;;;;;;11.95;3.33;;;;;;;;;;5017553;28;20026;-80
2022/11/16 08:46:32;;;;;;;8.43;2.63;;;;;;;;;;5032670;28;20033;-81
2022/11/16 08:48:57;;;;;;;10.80;2.88;;;;;;;;;;5016593;28;20029;-80
2022/11/16 08:51:23;;;;;;;5.55;2.38;;;;;;;;;;5016477;28;20029;-80
2022/11/16 08:53:54;;;;;;;6.38;2.53;;;;;;;;;;5031537;28;20091;-80
2022/11/16 08:56:19;;;;;;;5.35;2.40;;;;;;;;;;5036041;28;20045;-79
2022/11/16 08:58:45;;;;;;;6.13;1.90;;;;;;;;;;5023507;28;20026;-79
2022/11/16 09:01:17;;;;;;;7.50;2.30;;;;;;;;;;5017574;28;20025;-80
2022/11/16 09:03:43;;;;;;;9.43;2.30;;;;;;;;;;5015089;28;20022;-80
2022/11/16 09:06:10;;;;;;;7.05;2.20;;;;;;;;;;5015540;28;20018;-80
2022/11/16 09:08:36;;;;;;;3.08;1.92;;;;;;;;;;5031715;28;20050;-80
2022/11/16 09:11:07;;;;;;;6.00;1.88;;;;;;;;;;5014439;28;20117;-80
2022/11/16 09:13:32;;;;;;;6.43;2.20;;;;;;;;;;5033787;28;20125;-80
2022/11/16 09:15:58;;;;;;;6.20;2.17;;;;;;;;;;5032883;28;20121;-79
2022/11/16 09:18:25;;;;;;;6.30;2.55;;;;;;;;;;5015072;28;20103;-79
2022/11/16 09:20:50;;;;;;;4.30;1.92;;;;;;;;;;5033530;28;20022;-79
2022/11/16 09:23:16;;;;;;;6.13;1.90;;;;;;;;;;5031996;28;20038;-79
2022/11/16 09:25:43;;;;;;;5.47;1.98;;;;;;;;;;5014479;28;20382;-79
2022/11/16 09:28:10;;;;;;;7.65;1.85;;;;;;;;;;5017376;28;20026;-79
2022/11/16 09:30:35;;;;;;;5.38;1.85;;;;;;;;;;5017786;28;20064;-78
2022/11/16 09:33:00;;;;;;;4.18;1.83;;;;;;;;;;5017655;28;20030;-79
2022/11/16 09:35:26;;;;;;;3.53;1.67;;;;;;;;;;5015829;28;20042;-80
2022/11/16 09:37:51;;;;;;;4.95;1.83;;;;;;;;;;5017435;28;20511;-79
2022/11/16 09:40:17;;;;;;;7.57;2.13;;;;;;;;;;5017183;28;20030;-78
2022/11/16 09:42:54;;;;;;;4.85;1.88;;;;;;;;;;5017723;28;20060;-79
2022/11/16 09:45:26;;;;;;;4.32;2.00;;;;;;;;;;5017674;28;20033;-78
2022/11/16 09:47:58;;;;;;;5.05;2.10;;;;;;;;;;5001061;28;20445;-79
2022/11/16 09:50:41;;;;;;;3.97;1.60;;;;;;;;;;5000361;28;20042;-78
2022/11/16 09:53:25;;;;;;;5.13;1.83;;;;;;;;;;5019560;28;20026;-78
2022/11/16 09:55:53;;;;;;;3.58;1.75;;;;;;;;;;5019780;28;20086;-78
2022/11/16 09:58:51;;;;;;;5.32;2.33;;;;;;;;;;5017257;28;20029;-78
2022/11/16 10:01:22;;;;;;;3.50;1.63;;;;;;;;;;5018240;28;20044;-79
2022/11/16 10:03:52;;;;;;;3.22;1.48;;;;;;;;;;5018899;28;20030;-78
2022/11/16 10:06:21;;;;;;;7.55;2.00;;;;;;;;;;5021043;28;20022;-79
2022/11/16 10:08:50;;;;;;;4.60;1.90;;;;;;;;;;5003412;28;20036;-79
2022/11/16 10:11:53;;;;;;;6.00;1.88;;;;;;;;;;5017908;28;20057;-80
2022/11/16 10:14:39;;;;;;;5.10;1.83;;;;;;;;;;5017837;28;20114;-79
2022/11/16 10:17:34;;;;;;;7.65;2.17;;;;;;;;;;5022999;28;20025;-83
2022/11/16 10:20:13;;;;;;;9.60;1.70;;;;;;;;;;5034194;28;20100;-80
2022/11/16 10:22:38;;;;;;;10.10;1.92;;;;;;;;;;5016529;28;20105;-81
2022/11/16 10:25:25;;;;;;;6.50;1.92;;;;;;;;;;5024705;28;20131;-82
2022/11/16 10:28:03;;;;;;;5.55;1.83;;;;;;;;;;5015339;28;20056;-84
2022/11/16 10:30:33;;;;;;;10.07;2.10;;;;;;;;;;5013754;28;20038;-81
2022/11/16 10:33:09;;;;;;;6.55;1.70;;;;;;;;;;5002614;28;20508;-81
2022/11/16 10:35:54;;;;;;;8.98;2.05;;;;;;;;;;4997218;28;20033;-82
2022/11/16 10:38:23;;;;;;;4.60;1.80;;;;;;;;;;5026845;28;20109;-81
2022/11/16 10:41:02;;;;;;;10.23;1.67;;;;;;;;;;4999775;28;20076;-80
2022/11/16 10:43:30;;;;;;;9.25;2.00;;;;;;;;;;5015281;28;20068;-81
2022/11/16 10:46:01;;;;;;;9.15;1.77;;;;;;;;;;5001935;28;20400;-81
2022/11/16 10:48:36;;;;;;;4.40;2.08;;;;;;;;;;5017414;28;20105;-80
2022/11/16 10:51:06;;;;;;;3.60;1.92;;;;;;;;;;4994756;28;20048;-81
2022/11/16 10:53:40;;;;;;;4.63;2.08;;;;;;;;;;4996350;28;20457;-80
2022/11/16 10:56:11;;;;;;;4.43;1.80;;;;;;;;;;4995644;28;20019;-80
2022/11/16 10:59:02;;;;;;;3.70;1.80;;;;;;;;;;4994238;28;20109;-80
2022/11/16 11:01:38;;;;;;;4.82;1.85;;;;;;;;;;5020569;28;20123;-80
2022/11/16 11:04:12;;;;;;;5.35;1.65;;;;;;;;;;4995717;28;20140;-81
2022/11/16 11:06:39;;;;;;;8.15;1.95;;;;;;;;;;5001120;28;20022;-80
2022/11/16 11:09:31;;;;;;;5.22;1.63;;;;;;;;;;5013809;28;20137;-81
2022/11/16 11:14:40;;;;;;;8.48;1.63;;;;;;;;;;5015140;28;20099;-81
2022/11/16 11:17:10;;;;;;;4.00;1.52;;;;;;;;;;5016102;28;20449;-81
2022/11/16 11:19:36;;;;;;;5.32;1.60;;;;;;;;;;5016770;28;20025;-80
2022/11/16 11:22:01;;;;;;;4.65;1.60;;;;;;;;;;5014387;28;20517;-80
2022/11/16 11:24:27;;;;;;;11.45;1.75;;;;;;;;;;4995130;28;20051;-80
2022/11/16 11:26:59;;;;;;;3.10;1.63;;;;;;;;;;4996873;28;20108;-80
2022/11/16 11:29:28;;;;;;;4.50;1.60;;;;;;;;;;5015319;28;20030;-80
2022/11/16 11:31:57;;;;;;;5.30;1.60;;;;;;;;;;4996559;28;20133;-79
2022/11/16 11:34:39;;;;;;;5.53;1.95;;;;;;;;;;5012693;28;20058;-80
2022/11/16 11:37:31;;;;;;;5.20;1.80;;;;;;;;;;5023502;28;20026;-78
2022/11/16 11:40:09;;;;;;;14.88;1.95;;;;;;;;;;5018986;28;20034;-79
2022/11/16 11:42:34;;;;;;;9.13;1.75;;;;;;;;;;5032941;28;20034;-79
2022/11/16 11:45:06;;;;;;;12.65;1.75;;;;;;;;;;5047222;28;20035;-79
2022/11/16 11:47:40;;;;;;;11.32;1.70;;;;;;;;;;5032327;28;20440;-79
2022/11/16 11:50:21;;;;;;;7.32;1.75;;;;;;;;;;5030703;28;20052;-79
2022/11/16 11:53:01;;;;;;;7.72;1.63;;;;;;;;;;5047857;28;20025;-79
2022/11/16 11:55:27;;;;;;;6.65;1.55;;;;;;;;;;5032110;28;20106;-78
2022/11/16 11:57:52;;;;;;;7.43;1.75;;;;;;;;;;5047387;28;20080;-78
2022/11/16 12:00:19;;;;;;;4.45;1.70;;;;;;;;;;5030691;28;20041;-78
2022/11/16 12:03:14;;;;;;;5.55;1.70;;;;;;;;;;5049203;28;20044;-77
2022/11/16 12:06:01;;;;;;;15.30;2.17;;;;;;;;;;5051329;28;20036;-77
2022/11/16 12:08:50;;;;;;;8.23;1.88;;;;;;;;;;5036411;28;20021;-78
2022/11/16 12:11:36;;;;;;;9.77;1.90;;;;;;;;;;5053150;28;20518;-77
2022/11/16 12:14:03;;;;;;;14.13;1.80;;;;;;;;;;5036132;28;20043;-76
2022/11/16 12:16:38;;;;;;;10.73;1.80;;;;;;;;;;5052089;28;20029;-78
2022/11/16 12:19:24;;;;;;;7.82;1.80;;;;;;;;;;5034740;28;20026;-77
2022/11/16 12:21:55;;;;;;;10.50;1.73;;;;;;;;;;5034710;28;20079;-77
2022/11/16 12:25:06;;;;;;;7.28;1.90;;;;;;;;;;5035491;28;20053;-78
2022/11/16 12:27:53;;;;;;;11.70;2.10;;;;;;;;;;4973440;28;20124;-78
2022/11/16 12:30:20;;;;;;;6.32;1.70;;;;;;;;;;5034750;28;20028;-77
2022/11/16 12:33:07;;;;;;;7.80;1.65;;;;;;;;;;5052043;28;20043;-77
2022/11/16 12:35:52;;;;;;;9.60;1.83;;;;;;;;;;5034802;28;20025;-77
2022/11/16 12:38:39;;;;;;;7.93;1.95;;;;;;;;;;5035277;28;20103;-78
2022/11/16 12:41:23;;;;;;;11.18;2.03;;;;;;;;;;5036203;28;20027;-77
2022/11/16 12:44:07;;;;;;;23.02;1.80;;;;;;;;;;5036492;28;20033;-78
2022/11/16 12:46:46;;;;;;;6.43;1.67;;;;;;;;;;5051687;28;20119;-78
2022/11/16 12:49:51;;;;;;;4.45;1.60;;;;;;;;;;5050844;28;20387;-78
2022/11/16 12:52:41;;;;;;;6.30;1.50;;;;;;;;;;5035086;28;20067;-78
2022/11/16 12:56:17;;;;;;;10.18;2.05;;;;;;;;;;5035523;28;20038;-78
2022/11/16 12:58:56;;;;;;;10.23;2.38;;;;;;;;;;4942432;28;20034;-78
2022/11/16 13:01:35;;;;;;;8.13;1.85;;;;;;;;;;4942525;28;20026;-79
2022/11/16 13:04:08;;;;;;;7.32;2.00;;;;;;;;;;5025099;28;20121;-78
2022/11/16 13:06:42;;;;;;;7.13;1.73;;;;;;;;;;5051996;28;20029;-79
2022/11/16 13:09:26;;;;;;;;;;;;;;;;;;5051371;28;20610;-78
2022/11/16 13:12:04;;;;;;;24.92;2.35;;;;;;;;;;5033623;28;20313;-78
2022/11/16 13:14:39;;;;;;;12.93;1.60;;;;;;;;;;5051366;28;20341;-79
2022/11/16 13:17:05;;;;;;;5.55;1.75;;;;;;;;;;5051425;28;20160;-78
2022/11/16 13:19:32;;;;;;;7.80;1.95;;;;;;;;;;5034879;28;20040;-78
2022/11/16 13:22:02;;;;;;;8.35;1.80;;;;;;;;;;5051495;28;20499;-78
2022/11/16 13:24:51;;;;;;;5.03;1.90;;;;;;;;;;5035898;28;20077;-78
2022/11/16 13:27:23;;;;;;;6.00;2.05;;;;;;;;;;5051718;28;20017;-79
2022/11/16 13:30:04;;;;;;;5.72;1.75;;;;;;;;;;5037427;28;20431;-78
2022/11/16 13:32:58;;;;;;;5.38;2.00;;;;;;;;;;5034991;28;20025;-78
2022/11/16 13:35:24;;;;;;;12.38;2.25;;;;;;;;;;5034210;28;20051;-78
2022/11/16 13:37:51;;;;;;;6.65;1.80;;;;;;;;;;5050973;28;20101;-77
2022/11/16 13:40:25;;;;;;;6.75;1.90;;;;;;;;;;5050980;28;20022;-78
2022/11/16 13:43:08;;;;;;;5.47;2.10;;;;;;;;;;5052092;28;20036;-78
2022/11/16 13:45:55;;;;;;;9.90;1.90;;;;;;;;;;5034164;28;20045;-77
2022/11/16 13:48:21;;;;;;;7.55;1.92;;;;;;;;;;5034498;28;20443;-78
2022/11/16 13:50:49;;;;;;;7.82;1.92;;;;;;;;;;5035177;28;20017;-78
2022/11/16 13:53:48;;;;;;;9.45;2.15;;;;;;;;;;5051615;28;20025;-78
2022/11/16 13:56:15;;;;;;;7.15;1.73;;;;;;;;;;5034027;28;20037;-78
2022/11/16 13:58:48;;;;;;;6.18;1.70;;;;;;;;;;5053907;28;20025;-78
2022/11/16 14:01:15;;;;;;;6.55;1.50;;;;;;;;;;5051212;28;20480;-78
2022/11/16 14:03:45;;;;;;;7.95;2.00;;;;;;;;;;5050424;28;20033;-78
2022/11/16 14:06:23;;;;;;;5.18;1.80;;;;;;;;;;5033120;28;20068;-80
2022/11/16 14:08:55;;;;;;;5.05;1.60;;;;;;;;;;5038228;28;20021;-79
2022/11/16 14:11:31;;;;;;;21.50;2.92;;;;;;;;;;5050720;28;20033;-80
2022/11/16 14:14:01;;;;;;;8.98;2.15;;;;;;;;;;5038078;28;20089;-80
2022/11/16 14:16:27;;;;;;;8.63;2.00;;;;;;;;;;5049669;28;20084;-79
2022/11/16 14:18:56;;;;;;;10.85;2.78;;;;;;;;;;5033397;28;20072;-79
2022/11/16 14:21:25;;;;;;;9.63;1.98;;;;;;;;;;5051722;28;20441;-79
2022/11/16 14:24:28;;;;;;;12.57;1.95;;;;;;;;;;5034397;28;20428;-77
2022/11/16 14:27:16;;;;;;;12.50;2.10;;;;;;;;;;5033529;28;20412;-79
2022/11/16 14:30:10;;;;;;;7.22;2.38;;;;;;;;;;5034192;28;20439;-79
2022/11/16 14:32:43;;;;;;;8.25;2.03;;;;;;;;;;5032921;28;20137;-78
2022/11/16 14:35:28;;;;;;;8.85;2.03;;;;;;;;;;5050181;28;20084;-78
2022/11/16 14:37:59;;;;;;;9.68;2.20;;;;;;;;;;5033880;28;20025;-78
2022/11/16 14:40:24;;;;;;;8.10;1.73;;;;;;;;;;5034557;28;20067;-77
2022/11/16 14:43:05;;;;;;;6.25;1.85;;;;;;;;;;5015874;28;20058;-78
2022/11/16 14:45:32;;;;;;;9.38;2.05;;;;;;;;;;5048736;28;20055;-78
2022/11/16 14:48:18;;;;;;;9.93;2.17;;;;;;;;;;5048934;28;20029;-78
2022/11/16 14:51:20;;;;;;;6.00;1.73;;;;;;;;;;5048857;28;20112;-77
2022/11/16 14:53:52;;;;;;;5.45;1.80;;;;;;;;;;4972506;28;20031;-77
2022/11/16 14:56:18;;;;;;;6.60;1.73;;;;;;;;;;4940689;28;20051;-78
2022/11/16 14:58:54;;;;;;;7.70;1.88;;;;;;;;;;4957007;28;20573;-76
2022/11/16 15:01:39;;;;;;;7.57;1.65;;;;;;;;;;4940392;28;20038;-77
2022/11/16 15:04:08;;;;;;;5.88;1.70;;;;;;;;;;4972925;28;20401;-77
2022/11/16 15:06:43;;;;;;;6.85;1.50;;;;;;;;;;4956462;28;20506;-76
2022/11/16 15:09:19;;;;;;;6.65;1.70;;;;;;;;;;4956685;28;20042;-77
2022/11/16 15:14:35;;;;;;;8.10;2.08;;;;;;;;;;4972060;28;20141;-77
2022/11/16 15:17:00;;;;;;;5.65;1.77;;;;;;;;;;4955966;28;20074;-77
2022/11/16 15:19:29;;;;;;;5.45;1.98;;;;;;;;;;4972063;28;20058;-76
2022/11/16 15:21:57;;;;;;;5.10;1.58;;;;;;;;;;4956458;28;20121;-77
2022/11/16 15:24:33;;;;;;;4.55;1.90;;;;;;;;;;4972446;28;20145;-78
2022/11/16 15:27:09;;;;;;;11.05;1.60;;;;;;;;;;4984241;28;20034;-79
2022/11/16 15:29:35;;;;;;;2.72;1.73;;;;;;;;;;5048775;28;20108;-78
2022/11/16 15:32:00;;;;;;;6.15;1.60;;;;;;;;;;5048445;28;20126;-79
2022/11/16 15:34:26;;;;;;;4.63;1.58;;;;;;;;;;5048454;28;20028;-79
2022/11/16 15:36:51;;;;;;;4.15;1.60;;;;;;;;;;5033219;28;20423;-79
2022/11/16 15:39:21;;;;;;;7.15;1.80;;;;;;;;;;5037588;28;20031;-79
2022/11/16 15:41:47;;;;;;;10.35;1.67;;;;;;;;;;5053132;28;20029;-79
2022/11/16 15:44:15;;;;;;;8.63;2.00;;;;;;;;;;5052575;28;20458;-78
2022/11/16 15:46:41;;;;;;;6.07;2.10;;;;;;;;;;5036654;28;20112;-79
2022/11/16 15:49:28;;;;;;;5.70;1.50;;;;;;;;;;5053876;28;20033;-79